Time;durP1;ratioP1;P1;durP2;ratioP2;P2;SDS_P1;SDS_P2;PMS_P1;PMS_P2;Temp;Humidity;BMP_temperature;BMP_pressure;BME280_temperature;BME280_humidity;BME280_pressure;Samples;Min_cycle;Max_cycle;Signal;HPM_P1;HPM_P2
2022/09/03 00:01:42;;;;;;;16.13;4.43;;;;;;;26.02;33.63;102274.41;4187266;28;20041;-67
2022/09/03 00:03:50;;;;;;;18.25;3.78;;;;;;;26.14;33.70;102297.38;4197070;28;20450;-66
2022/09/03 00:06:15;;;;;;;7.65;2.90;;;;;;;26.09;33.93;102300.19;4195573;28;20040;-65
2022/09/03 00:08:37;;;;;;;7.53;2.83;;;;;;;26.13;35.01;102304.13;4196382;28;20537;-66
2022/09/03 00:10:51;;;;;;;8.55;3.08;;;;;;;26.13;34.08;102298.50;4196597;28;20056;-66
2022/09/03 00:12:59;;;;;;;14.07;3.50;;;;;;;26.17;33.59;102312.81;4193007;28;20036;-67
2022/09/03 00:15:08;;;;;;;13.25;3.25;;;;;;;26.06;33.52;102300.75;4197145;28;20131;-68
2022/09/03 00:17:23;;;;;;;9.25;3.35;;;;;;;26.12;34.18;102312.84;4196731;28;20041;-70
2022/09/03 00:19:49;;;;;;;11.50;3.60;;;;;;;26.11;35.10;102311.97;4192853;28;20086;-67
2022/09/03 00:21:56;;;;;;;14.45;3.80;;;;;;;26.16;34.22;102311.97;4196192;28;20045;-65
2022/09/03 00:24:00;;;;;;;10.32;2.83;;;;;;;26.16;33.59;102317.59;4196714;28;20094;-66
2022/09/03 00:26:24;;;;;;;16.50;3.83;;;;;;;26.11;33.61;102323.19;4196573;28;20056;-68
2022/09/03 00:28:41;;;;;;;9.50;3.42;;;;;;;26.03;34.07;102306.97;4196293;28;20101;-68
2022/09/03 00:30:52;;;;;;;9.20;4.03;;;;;;;25.99;34.94;102301.06;4193304;28;20121;-67
2022/09/03 00:33:04;;;;;;;9.50;4.07;;;;;;;26.16;34.34;102323.19;4195964;28;20028;-69
2022/09/03 00:35:14;;;;;;;9.02;3.30;;;;;;;26.17;34.01;102329.66;4195320;28;20041;-67
2022/09/03 00:37:22;;;;;;;10.02;3.90;;;;;;;26.03;33.91;102309.75;4197335;28;20098;-68
2022/09/03 00:39:26;;;;;;;11.82;4.13;;;;;;;26.09;34.64;102322.66;4197825;28;20373;-66
2022/09/03 00:41:40;;;;;;;11.77;3.78;;;;;;;26.12;35.27;102322.09;4194340;28;20173;-67
2022/09/03 00:43:50;;;;;;;8.07;3.67;;;;;;;26.15;34.27;102332.72;4195896;28;20109;-67
2022/09/03 00:46:18;;;;;;;9.13;3.83;;;;;;;26.13;34.25;102334.16;4196674;28;20101;-67
2022/09/03 00:48:32;;;;;;;10.75;3.90;;;;;;;26.09;34.02;102333.88;4188020;28;20098;-69
2022/09/03 00:50:45;;;;;;;13.68;3.63;;;;;;;26.11;34.41;102340.03;4196847;28;20032;-68
2022/09/03 00:52:52;;;;;;;10.07;4.30;;;;;;;26.12;35.02;102341.72;4197048;28;20425;-68
2022/09/03 00:55:08;;;;;;;8.68;4.00;;;;;;;26.13;34.31;102343.41;4194752;28;20097;-66
2022/09/03 00:57:43;;;;;;;9.65;3.80;;;;;;;26.11;34.01;102342.81;4196478;28;20121;-66
2022/09/03 01:00:03;;;;;;;12.10;4.60;;;;;;;26.11;33.85;102351.25;4185045;28;20040;-69
2022/09/03 01:02:40;;;;;;;9.35;4.57;;;;;;;26.08;34.51;102349.03;4196734;28;20094;-67
2022/09/03 01:04:44;;;;;;;9.77;4.43;;;;;;;26.14;34.68;102345.06;4197266;28;20059;-67
2022/09/03 01:07:27;;;;;;;8.20;4.25;;;;;;;26.00;34.06;102346.78;4195858;28;20082;-68
2022/09/03 01:09:37;;;;;;;12.13;4.93;;;;;;;26.16;33.84;102365.28;4160548;28;20037;-69
2022/09/03 01:12:12;;;;;;;8.35;4.93;;;;;;;26.10;34.44;102370.03;4181888;28;20037;-68
2022/09/03 01:14:43;;;;;;;8.68;4.55;;;;;;;26.10;34.90;102372.00;4196428;28;20052;-69
2022/09/03 01:17:27;;;;;;;14.70;5.10;;;;;;;26.13;34.52;102379.88;4190627;28;20079;-67
2022/09/03 01:19:47;;;;;;;8.13;4.88;;;;;;;26.17;34.02;102381.00;4192391;28;20495;-71
2022/09/03 01:22:02;;;;;;;7.13;5.40;;;;;;;25.96;33.92;102362.50;4194008;28;21204;-68
2022/09/03 01:24:42;;;;;;;9.55;5.38;;;;;;;26.08;34.92;102385.50;4194926;28;20048;-71
2022/09/03 01:27:04;;;;;;;7.32;4.82;;;;;;;26.14;34.38;102375.09;4158369;28;20110;-71
2022/09/03 01:29:31;;;;;;;10.40;5.13;;;;;;;26.14;33.99;102369.47;4189992;28;20045;-70
2022/09/03 01:32:03;;;;;;;10.10;5.63;;;;;;;26.11;34.08;102370.88;4185946;28;20032;-70
2022/09/03 01:34:10;;;;;;;10.38;5.32;;;;;;;25.93;34.28;102340.59;4196590;28;20044;-70
2022/09/03 01:36:23;;;;;;;11.10;5.55;;;;;;;26.09;34.93;102379.59;4194103;28;20102;-66
2022/09/03 01:38:35;;;;;;;10.57;5.97;;;;;;;26.13;34.07;102379.03;4194195;28;20369;-67
2022/09/03 01:43:49;;;;;;;17.40;6.57;;;;;;;26.10;33.88;102363.59;4193564;28;20458;-66
2022/09/03 01:46:30;;;;;;;10.65;5.40;;;;;;;26.00;34.77;102350.41;4195696;28;20037;-66
2022/09/03 01:48:42;;;;;;;11.80;6.03;;;;;;;26.13;34.40;102363.03;4186493;28;20045;-64
2022/09/03 01:50:58;;;;;;;8.05;5.63;;;;;;;26.13;34.19;102357.44;4190550;28;20032;-64
2022/09/03 01:53:06;;;;;;;10.55;5.70;;;;;;;26.03;34.16;102352.69;4195342;28;20048;-63
2022/09/03 01:55:29;;;;;;;13.07;6.30;;;;;;;26.05;34.46;102372.03;4184346;28;20041;-64
2022/09/03 01:57:48;;;;;;;10.85;5.60;;;;;;;26.04;35.17;102371.19;4199902;28;20427;-65
2022/09/03 01:59:59;;;;;;;11.88;6.40;;;;;;;26.12;34.54;102372.59;4201169;28;20040;-66
2022/09/03 02:02:00;;;;;;;12.85;6.28;;;;;;;26.12;34.10;102378.19;4198720;28;20032;-66
2022/09/03 02:04:12;;;;;;;10.13;5.75;;;;;;;26.07;34.06;102369.75;4199263;28;20032;-65
2022/09/03 02:06:19;;;;;;;12.05;6.20;;;;;;;26.06;34.73;102380.13;4193153;28;20049;-64
2022/09/03 02:08:20;;;;;;;11.82;6.07;;;;;;;26.09;35.50;102381.56;4198290;28;20373;-66
2022/09/03 02:10:40;;;;;;;13.48;6.07;;;;;;;26.11;34.50;102376.50;4197628;28;20105;-67
2022/09/03 02:12:48;;;;;;;13.73;6.03;;;;;;;26.11;34.44;102376.50;4198446;28;20040;-65
2022/09/03 02:14:52;;;;;;;11.00;5.80;;;;;;;26.05;34.06;102377.63;4198307;28;20110;-68
2022/09/03 02:16:57;;;;;;;6.40;5.55;;;;;;;25.86;35.01;102346.50;4199595;28;20082;-66
2022/09/03 02:18:59;;;;;;;;;;;;;;;26.06;35.02;102379.31;4206994;28;20361;-67
2022/09/03 02:21:01;;;;;;;12.63;6.53;;;;;;;26.18;34.44;102373.41;4197602;28;20461;-62
2022/09/03 02:23:03;;;;;;;9.75;6.40;;;;;;;25.97;34.28;102344.53;4199209;28;20036;-70
2022/09/03 02:25:06;;;;;;;12.73;6.43;;;;;;;26.15;34.34;102382.38;4197669;28;20089;-63
2022/09/03 02:27:07;;;;;;;10.43;5.75;;;;;;;26.06;34.32;102373.69;4197526;28;20086;-66
2022/09/03 02:29:09;;;;;;;9.35;6.00;;;;;;;26.10;35.47;102380.41;4200396;28;20048;-65
2022/09/03 02:31:10;;;;;;;11.27;6.05;;;;;;;26.11;34.89;102373.69;4201088;28;20044;-65
2022/09/03 02:33:12;;;;;;;13.75;7.00;;;;;;;26.13;34.47;102377.06;4199812;28;20114;-65
2022/09/03 02:35:16;;;;;;;14.80;6.90;;;;;;;26.11;34.43;102368.06;4200236;28;20040;-66
2022/09/03 02:37:18;;;;;;;9.30;6.60;;;;;;;26.08;34.07;102363.88;4200163;28;20530;-64
2022/09/03 02:39:19;;;;;;;8.73;6.38;;;;;;;26.00;35.10;102346.78;4199888;28;20040;-65
2022/09/03 02:41:21;;;;;;;12.55;6.78;;;;;;;26.05;35.47;102356.03;4199556;28;20032;-66
2022/09/03 02:43:33;;;;;;;13.60;7.00;;;;;;;26.06;34.87;102356.84;4200011;28;20044;-65
2022/09/03 02:45:39;;;;;;;9.18;6.55;;;;;;;26.11;34.11;102362.47;4187383;28;20036;-65
2022/09/03 02:47:44;;;;;;;7.82;6.80;;;;;;;26.07;33.94;102358.53;4199392;28;20094;-66
2022/09/03 02:49:47;;;;;;;9.98;7.45;;;;;;;26.07;34.71;102364.16;4199107;28;20464;-65
2022/09/03 02:51:49;;;;;;;12.70;6.97;;;;;;;26.08;35.49;102365.84;4199735;28;20036;-65
2022/09/03 02:53:53;;;;;;;13.07;6.93;;;;;;;26.10;34.80;102363.59;4199698;28;20075;-65
2022/09/03 02:56:01;;;;;;;12.35;7.60;;;;;;;26.01;34.37;102348.44;4199190;28;20044;-64
2022/09/03 02:58:05;;;;;;;9.57;7.10;;;;;;;26.04;34.12;102353.50;4199562;28;20040;-64
2022/09/03 03:00:07;;;;;;;11.27;7.65;;;;;;;26.06;34.56;102360.50;4199259;28;20090;-64
2022/09/03 03:02:09;;;;;;;10.43;8.15;;;;;;;26.06;35.23;102362.47;4202438;28;20028;-64
2022/09/03 03:04:11;;;;;;;14.73;8.18;;;;;;;26.00;34.69;102346.78;4195619;28;20094;-66
2022/09/03 03:06:13;;;;;;;11.88;8.10;;;;;;;26.11;34.47;102359.66;4199772;28;20491;-66
2022/09/03 03:08:20;;;;;;;16.45;8.75;;;;;;;26.09;34.33;102361.91;4199393;28;20098;-65
2022/09/03 03:10:21;;;;;;;12.18;8.32;;;;;;;26.07;34.16;102369.75;4199434;28;20102;-64
2022/09/03 03:12:25;;;;;;;11.18;8.65;;;;;;;26.04;35.20;102364.72;4199005;28;20036;-64
2022/09/03 03:14:29;;;;;;;12.27;8.80;;;;;;;26.07;34.57;102358.53;4199326;28;20037;-64
2022/09/03 03:16:33;;;;;;;9.80;8.80;;;;;;;26.07;34.55;102361.34;4198614;28;20090;-63
2022/09/03 03:18:35;;;;;;;13.43;9.00;;;;;;;25.97;34.03;102352.94;4199083;28;20044;-64
2022/09/03 03:20:43;;;;;;;11.57;9.27;;;;;;;25.91;33.93;102351.28;4199171;28;20033;-63
2022/09/03 03:22:47;;;;;;;11.52;9.52;;;;;;;26.05;34.75;102374.81;4199668;28;20029;-64
2022/09/03 03:24:49;;;;;;;13.65;9.32;;;;;;;26.07;34.77;102369.75;4199219;28;20703;-64
2022/09/03 03:26:53;;;;;;;11.18;9.60;;;;;;;26.09;34.25;102364.72;4199184;28;20140;-63
2022/09/03 03:28:57;;;;;;;11.52;10.02;;;;;;;26.06;33.81;102356.84;4199658;28;20032;-64
2022/09/03 03:31:08;;;;;;;14.35;10.43;;;;;;;26.05;34.17;102360.78;4198321;28;20086;-63
2022/09/03 03:33:12;;;;;;;11.60;10.60;;;;;;;25.82;34.27;102322.94;4198829;28;20044;-64
2022/09/03 03:35:16;;;;;;;11.18;10.10;;;;;;;26.04;34.71;102359.13;4198408;28;20048;-63
2022/09/03 03:37:17;;;;;;;10.45;9.52;;;;;;;26.07;34.16;102364.16;4198965;28;20045;-63
2022/09/03 03:39:19;;;;;;;10.60;9.48;;;;;;;26.07;33.99;102358.53;4198982;28;20044;-63
2022/09/03 03:41:23;;;;;;;14.52;10.80;;;;;;;26.04;33.69;102364.72;4198581;28;20040;-64
2022/09/03 03:43:25;;;;;;;11.20;10.40;;;;;;;25.91;34.11;102345.66;4198723;28;20102;-63
2022/09/03 03:45:26;;;;;;;11.48;10.52;;;;;;;26.02;34.92;102364.16;4198613;28;20118;-63
2022/09/03 03:47:31;;;;;;;12.30;11.02;;;;;;;26.04;34.10;102359.97;4199036;28;20526;-63
2022/09/03 03:49:32;;;;;;;11.98;10.82;;;;;;;26.05;34.00;102363.59;4198953;28;20040;-64
2022/09/03 03:51:37;;;;;;;13.65;12.35;;;;;;;25.92;33.71;102347.34;4190733;28;20053;-64
2022/09/03 03:53:44;;;;;;;12.23;11.23;;;;;;;26.01;34.20;102368.09;4198263;28;20484;-64
2022/09/03 03:56:02;;;;;;;13.35;12.00;;;;;;;25.98;34.84;102369.50;4198697;28;20173;-64
2022/09/03 03:58:06;;;;;;;13.40;12.15;;;;;;;26.04;34.56;102370.34;4198891;28;20098;-64
2022/09/03 04:00:08;;;;;;;12.47;11.27;;;;;;;26.04;33.73;102370.34;4198415;28;20037;-64
2022/09/03 04:02:10;;;;;;;12.88;11.55;;;;;;;26.04;34.03;102361.94;4192388;28;20114;-63
2022/09/03 04:04:11;;;;;;;13.60;12.32;;;;;;;25.79;34.08;102329.94;4198880;28;20025;-64
2022/09/03 04:06:16;;;;;;;14.00;12.82;;;;;;;25.98;34.80;102372.31;4206575;28;20043;-63
2022/09/03 04:08:20;;;;;;;13.82;12.45;;;;;;;26.00;34.54;102358.84;4202870;28;20089;-63
2022/09/03 04:10:24;;;;;;;14.43;13.13;;;;;;;26.02;33.75;102358.53;4197409;28;20435;-65
2022/09/03 04:12:29;;;;;;;14.32;13.02;;;;;;;26.01;33.62;102368.09;4198522;28;20041;-62
2022/09/03 04:14:30;;;;;;;14.05;12.80;;;;;;;25.98;33.93;102368.63;4188820;28;20037;-65
2022/09/03 04:16:34;;;;;;;15.25;13.25;;;;;;;25.95;34.58;102355.19;4197210;28;20048;-65
2022/09/03 04:18:37;;;;;;;13.67;12.67;;;;;;;25.94;34.34;102353.53;4198023;28;20070;-67
2022/09/03 04:20:38;;;;;;;14.18;12.82;;;;;;;26.02;34.15;102366.97;4197857;28;20273;-67
2022/09/03 04:22:39;;;;;;;14.57;13.20;;;;;;;26.01;34.10;102365.28;4198684;28;20028;-67
2022/09/03 04:24:40;;;;;;;14.75;13.23;;;;;;;25.99;33.56;102370.34;4197949;28;20040;-68
2022/09/03 04:26:46;;;;;;;14.50;13.20;;;;;;;25.97;34.24;102370.59;4197981;28;20072;-67
2022/09/03 04:28:50;;;;;;;14.93;13.73;;;;;;;25.87;34.50;102358.56;4198504;28;20078;-67
2022/09/03 04:30:51;;;;;;;17.77;14.10;;;;;;;26.01;34.27;102382.13;4197864;28;20086;-66
2022/09/03 04:32:55;;;;;;;15.32;13.77;;;;;;;25.88;33.96;102360.25;4198068;28;20328;-67
2022/09/03 04:34:56;;;;;;;15.73;14.25;;;;;;;25.97;33.64;102381.81;4198150;28;20060;-66
2022/09/03 04:37:00;;;;;;;15.40;14.00;;;;;;;25.95;34.17;102377.63;4198282;28;20085;-67
2022/09/03 04:39:02;;;;;;;16.53;15.03;;;;;;;25.96;35.04;102380.16;4198411;28;20090;-67
2022/09/03 04:41:05;;;;;;;18.45;16.15;;;;;;;25.98;34.24;102382.66;4197643;28;20070;-67
2022/09/03 04:43:06;;;;;;;16.35;14.85;;;;;;;25.95;33.99;102372.03;4197078;28;20048;-68
2022/09/03 04:45:10;;;;;;;16.52;15.02;;;;;;;25.97;33.74;102384.63;4197731;28;20044;-66
2022/09/03 04:47:11;;;;;;;17.25;15.50;;;;;;;25.91;33.85;102371.75;4197546;28;20106;-67
2022/09/03 04:49:15;;;;;;;16.88;15.27;;;;;;;25.83;34.84;102364.72;4198222;28;20462;-65
2022/09/03 04:51:28;;;;;;;17.17;15.38;;;;;;;25.96;34.22;102379.31;4197503;28;20050;-67
2022/09/03 04:53:34;;;;;;;17.25;15.52;;;;;;;26.00;33.69;102388.84;4197978;28;20044;-67
2022/09/03 04:55:36;;;;;;;16.95;15.18;;;;;;;26.00;33.75;102386.03;4214214;28;20047;-66
2022/09/03 04:57:38;;;;;;;16.55;15.02;;;;;;;25.97;33.80;102381.00;4214487;28;20036;-65
2022/09/03 04:59:39;;;;;;;16.42;14.80;;;;;;;25.84;34.67;102358.00;4211259;28;20090;-66
2022/09/03 05:01:43;;;;;;;17.27;15.60;;;;;;;25.83;35.03;102353.50;4197395;28;20448;-67
2022/09/03 05:03:45;;;;;;;17.77;15.18;;;;;;;25.92;34.10;102364.16;4196923;28;20093;-67
2022/09/03 05:05:53;;;;;;;17.52;15.68;;;;;;;26.00;34.00;102374.81;4193760;28;20464;-66
2022/09/03 05:08:00;;;;;;;16.88;15.18;;;;;;;25.95;33.65;102370.06;4197666;28;20021;-67
2022/09/03 05:10:03;;;;;;;16.40;14.95;;;;;;;25.97;34.07;102378.19;4197660;28;20379;-67
2022/09/03 05:12:04;;;;;;;17.83;15.23;;;;;;;25.94;34.66;102367.56;4196685;28;20045;-67
2022/09/03 05:14:06;;;;;;;16.80;15.05;;;;;;;25.98;34.47;102374.25;4196014;28;20036;-69
2022/09/03 05:16:09;;;;;;;16.77;15.30;;;;;;;25.98;33.68;102366.72;4197299;28;20040;-68
2022/09/03 05:18:13;;;;;;;19.02;15.52;;;;;;;25.95;33.91;102361.66;4213228;28;20028;-70
2022/09/03 05:20:15;;;;;;;17.25;15.55;;;;;;;25.92;33.59;102364.16;4195051;28;20066;-68
2022/09/03 05:22:20;;;;;;;16.52;15.05;;;;;;;25.79;34.53;102355.19;4204832;28;20036;-66
2022/09/03 05:24:21;;;;;;;16.65;14.80;;;;;;;25.97;34.82;102370.59;4200788;28;20056;-68
2022/09/03 05:26:27;;;;;;;15.75;14.45;;;;;;;25.99;34.21;102373.16;4198894;28;20102;-65
2022/09/03 05:28:30;;;;;;;16.10;14.43;;;;;;;26.01;34.02;102365.28;4191932;28;20048;-66
2022/09/03 05:30:31;;;;;;;15.90;14.45;;;;;;;25.98;33.85;102365.84;4197062;28;20051;-65
2022/09/03 05:32:33;;;;;;;16.63;15.23;;;;;;;25.95;34.01;102361.66;4197619;28;20048;-66
2022/09/03 05:34:34;;;;;;;16.48;14.90;;;;;;;25.95;34.93;102355.19;4200416;28;20102;-67
2022/09/03 05:36:43;;;;;;;17.15;15.38;;;;;;;25.95;34.70;102356.03;4196315;28;20062;-67
2022/09/03 05:38:48;;;;;;;16.52;14.85;;;;;;;25.95;34.18;102347.63;4197692;28;20097;-66
2022/09/03 05:40:50;;;;;;;16.30;14.77;;;;;;;25.80;33.97;102330.81;4198080;28;20048;-66
2022/09/03 05:42:57;;;;;;;16.45;14.93;;;;;;;25.74;34.33;102327.13;4213383;28;20168;-67
2022/09/03 05:44:59;;;;;;;15.95;14.32;;;;;;;25.96;35.29;102354.91;4214469;28;20043;-66
2022/09/03 05:47:00;;;;;;;15.20;13.80;;;;;;;25.87;35.53;102336.13;4200351;28;20101;-66
2022/09/03 05:49:04;;;;;;;15.05;13.50;;;;;;;26.02;34.98;102361.34;4197238;28;20049;-66
2022/09/03 05:51:15;;;;;;;16.00;14.30;;;;;;;26.00;34.66;102356.03;4192466;28;20049;-67
2022/09/03 05:53:16;;;;;;;14.93;13.35;;;;;;;26.00;34.65;102358.84;4180915;28;20037;-67
2022/09/03 05:55:34;;;;;;;16.17;14.60;;;;;;;25.75;34.94;102326.03;4181052;28;20472;-66
2022/09/03 05:57:36;;;;;;;19.05;14.25;;;;;;;26.01;35.26;102362.47;4197000;28;20049;-66
2022/09/03 05:59:37;;;;;;;15.35;13.80;;;;;;;26.03;34.53;102360.25;4196187;28;20045;-67
2022/09/03 06:01:41;;;;;;;15.38;13.30;;;;;;;26.01;34.23;102354.06;4199120;28;20090;-67
2022/09/03 06:03:44;;;;;;;16.63;14.43;;;;;;;25.99;34.32;102351.56;4214319;28;20032;-66
2022/09/03 06:05:54;;;;;;;16.25;13.88;;;;;;;25.93;34.63;102346.22;4202716;28;20130;-67
2022/09/03 06:08:01;;;;;;;16.30;13.45;;;;;;;25.95;34.72;102343.97;4180842;28;20045;-66
2022/09/03 06:10:03;;;;;;;14.75;13.35;;;;;;;26.00;34.31;102355.19;4182043;28;20114;-67
2022/09/03 06:12:04;;;;;;;14.32;12.95;;;;;;;25.99;34.20;102356.31;4198419;28;20044;-67
2022/09/03 06:14:08;;;;;;;17.20;13.82;;;;;;;25.96;34.38;102354.06;4197068;28;20450;-66
2022/09/03 06:16:09;;;;;;;13.50;12.35;;;;;;;25.85;34.77;102339.22;4195897;28;20438;-66
2022/09/03 06:18:13;;;;;;;13.75;12.35;;;;;;;25.91;35.45;102354.06;4200796;28;20074;-67
2022/09/03 06:20:17;;;;;;;14.33;13.03;;;;;;;26.00;34.66;102358.00;4214021;28;20032;-67
2022/09/03 06:22:24;;;;;;;15.20;13.20;;;;;;;25.99;34.19;102356.31;4213526;28;20047;-67
2022/09/03 06:24:28;;;;;;;14.63;13.25;;;;;;;25.85;33.97;102334.44;4211731;28;20487;-66
2022/09/03 06:26:35;;;;;;;13.38;12.25;;;;;;;25.95;34.30;102350.44;4213641;28;20040;-66
2022/09/03 06:28:40;;;;;;;14.45;12.20;;;;;;;25.96;35.35;102349.31;4212247;28;20039;-67
2022/09/03 06:30:46;;;;;;;14.32;12.73;;;;;;;24.96;34.46;102167.63;4204024;28;20036;-67
2022/09/03 06:32:52;;;;;;;12.77;11.77;;;;;;;26.01;34.45;102345.66;4197055;28;20483;-66
2022/09/03 06:34:54;;;;;;;13.40;12.07;;;;;;;26.00;34.21;102346.78;4213572;28;20056;-66
2022/09/03 06:36:55;;;;;;;14.10;12.75;;;;;;;25.97;34.28;102345.38;4213518;28;20044;-67
2022/09/03 06:38:57;;;;;;;12.88;11.70;;;;;;;25.96;35.28;102348.47;4203358;28;20028;-67
2022/09/03 06:41:04;;;;;;;13.35;12.07;;;;;;;25.97;35.20;102350.13;4199932;28;20495;-66
2022/09/03 06:43:10;;;;;;;12.98;11.70;;;;;;;25.99;34.47;102351.56;4202691;28;20449;-67
2022/09/03 06:45:11;;;;;;;12.50;11.50;;;;;;;25.99;34.44;102348.75;4216963;28;20036;-66
2022/09/03 06:47:12;;;;;;;12.68;11.50;;;;;;;25.98;34.07;102355.50;4214847;28;20052;-66
2022/09/03 06:49:14;;;;;;;13.15;11.98;;;;;;;25.95;34.48;102350.44;4214402;28;20098;-67
2022/09/03 06:51:19;;;;;;;13.50;12.13;;;;;;;25.95;35.46;102349.59;4216325;28;20052;-66
2022/09/03 06:53:27;;;;;;;12.13;11.18;;;;;;;25.88;34.81;102333.03;4210421;28;20166;-67
2022/09/03 06:55:28;;;;;;;12.32;11.32;;;;;;;25.99;34.07;102351.56;4215983;28;20052;-67
2022/09/03 06:57:30;;;;;;;13.23;11.27;;;;;;;25.98;34.13;102349.00;4216307;28;20365;-66
2022/09/03 06:59:33;;;;;;;12.98;11.77;;;;;;;25.95;34.13;102356.03;4214582;28;20048;-66
2022/09/03 07:01:39;;;;;;;12.23;11.07;;;;;;;25.92;35.25;102350.16;4216462;28;20085;-66
2022/09/03 07:03:42;;;;;;;12.77;11.32;;;;;;;25.97;34.62;102352.94;4214758;28;20148;-67
2022/09/03 07:05:46;;;;;;;11.80;10.80;;;;;;;25.85;34.71;102334.44;4202383;28;20033;-66
2022/09/03 07:07:49;;;;;;;11.60;10.57;;;;;;;25.99;34.42;102361.94;4189244;28;20032;-67
2022/09/03 07:09:53;;;;;;;11.85;10.85;;;;;;;25.91;34.18;102357.72;4205558;28;20281;-67
2022/09/03 07:11:54;;;;;;;11.52;10.43;;;;;;;25.95;34.69;102360.81;4198872;28;20439;-67
2022/09/03 07:13:59;;;;;;;12.18;10.98;;;;;;;25.84;35.27;102357.16;4198267;28;20070;-66
2022/09/03 07:16:01;;;;;;;;;;;;;;;25.96;34.45;102356.88;4200274;28;20048;-67
2022/09/03 07:18:03;;;;;;;11.95;10.90;;;;;;;26.05;34.08;102366.41;4199693;28;19916;-67
2022/09/03 07:20:04;;;;;;;11.63;10.63;;;;;;;26.02;34.15;102369.75;4209069;28;20020;-67
2022/09/03 07:22:06;;;;;;;11.38;10.40;;;;;;;25.98;34.00;102377.94;4215510;28;20511;-67
2022/09/03 07:24:09;;;;;;;11.30;10.40;;;;;;;25.97;35.11;102369.78;4213775;28;20049;-66
2022/09/03 07:26:13;;;;;;;11.30;10.30;;;;;;;25.98;34.82;102377.06;4202099;28;20048;-66
2022/09/03 07:28:17;;;;;;;11.57;10.47;;;;;;;25.95;34.51;102372.03;4198670;28;20040;-66
2022/09/03 07:30:19;;;;;;;11.07;10.23;;;;;;;25.98;33.95;102377.06;4197367;28;20125;-67
2022/09/03 07:32:20;;;;;;;11.30;10.27;;;;;;;25.85;34.18;102362.50;4215373;28;20094;-66
2022/09/03 07:34:27;;;;;;;11.13;10.23;;;;;;;25.92;34.64;102378.19;4211640;28;20102;-66
2022/09/03 07:36:31;;;;;;;11.75;10.75;;;;;;;25.93;35.44;102385.47;4216015;28;20062;-67
2022/09/03 07:38:34;;;;;;;11.68;10.63;;;;;;;25.87;34.73;102379.03;4216080;28;20051;-67
2022/09/03 07:40:35;;;;;;;10.82;10.00;;;;;;;25.96;34.39;102382.13;4202359;28;20040;-66
2022/09/03 07:42:40;;;;;;;10.93;10.13;;;;;;;25.95;34.20;102383.25;4198378;28;20121;-67
2022/09/03 07:44:44;;;;;;;10.68;9.80;;;;;;;25.92;34.55;102381.00;4202288;28;20418;-66
2022/09/03 07:46:46;;;;;;;10.97;10.10;;;;;;;25.87;35.21;102369.78;4215473;28;20074;-66
2022/09/03 07:48:56;;;;;;;10.40;9.60;;;;;;;25.94;34.45;102373.16;4199610;28;20440;-66
2022/09/03 07:51:00;;;;;;;10.70;9.70;;;;;;;25.95;34.32;102372.88;4210739;28;20044;-66
2022/09/03 07:53:08;;;;;;;10.15;9.38;;;;;;;25.94;33.78;102371.19;4182419;28;20098;-67
2022/09/03 07:55:10;;;;;;;10.38;9.55;;;;;;;25.92;34.28;102366.97;4196415;28;20040;-66
2022/09/03 07:57:11;;;;;;;10.50;9.70;;;;;;;25.92;34.99;102366.97;4215462;28;20109;-67
2022/09/03 07:59:12;;;;;;;10.52;9.63;;;;;;;25.94;34.77;102370.34;4207233;28;20045;-66
2022/09/03 08:01:16;;;;;;;9.73;9.00;;;;;;;25.95;34.56;102377.63;4198165;28;20044;-66
2022/09/03 08:03:17;;;;;;;9.90;9.05;;;;;;;25.94;34.25;102382.41;4198873;28;20032;-66
2022/09/03 08:05:19;;;;;;;10.07;9.27;;;;;;;25.87;34.13;102365.00;4205749;28;20040;-66
2022/09/03 08:07:23;;;;;;;10.23;9.43;;;;;;;25.90;34.58;102374.84;4198830;28;20037;-66
2022/09/03 08:09:33;;;;;;;9.60;8.90;;;;;;;25.91;35.41;102370.91;4204810;28;20082;-66
2022/09/03 08:11:42;;;;;;;9.73;8.93;;;;;;;25.84;34.76;102360.81;4214934;28;20024;-66
2022/09/03 08:13:53;;;;;;;10.00;9.20;;;;;;;25.94;33.94;102370.34;4211682;28;20409;-66
2022/09/03 08:15:55;;;;;;;9.55;8.80;;;;;;;25.92;34.29;102373.41;4198400;28;20036;-66
2022/09/03 08:17:59;;;;;;;9.82;9.13;;;;;;;25.90;34.50;102369.22;4198514;28;20438;-66
2022/09/03 08:20:02;;;;;;;10.75;9.75;;;;;;;25.89;35.70;102365.59;4209262;28;20129;-67
2022/09/03 08:22:03;;;;;;;9.80;9.07;;;;;;;25.91;34.63;102368.94;4214546;28;20040;-66
2022/09/03 08:24:05;;;;;;;9.82;9.07;;;;;;;25.90;34.41;102366.44;4200855;28;20044;-66
2022/09/03 08:26:10;;;;;;;9.75;8.95;;;;;;;25.90;34.11;102374.84;4215289;28;20020;-66
2022/09/03 08:28:11;;;;;;;;;;;;;;;25.85;34.48;102379.31;4213621;28;20045;-66
2022/09/03 08:30:12;;;;;;;9.70;9.00;;;;;;;25.83;34.80;102359.13;4215465;28;19918;-66
2022/09/03 08:32:13;;;;;;;9.07;8.38;;;;;;;25.95;34.64;102377.63;4213522;28;20032;-66
2022/09/03 08:34:16;;;;;;;9.40;8.60;;;;;;;25.96;34.41;102379.31;4212492;28;20093;-66
2022/09/03 08:36:21;;;;;;;8.68;8.07;;;;;;;25.93;33.95;102379.88;4215158;28;20036;-66
2022/09/03 08:38:24;;;;;;;8.90;8.20;;;;;;;25.90;34.07;102386.06;4200454;28;20102;-66
2022/09/03 08:40:28;;;;;;;9.32;8.43;;;;;;;25.87;34.80;102393.06;4197815;28;20541;-66
2022/09/03 08:42:59;;;;;;;9.27;8.60;;;;;;;25.87;34.91;102378.19;4204821;28;20105;-66
2022/09/03 08:45:05;;;;;;;9.27;8.50;;;;;;;25.92;34.21;102378.19;4213965;28;20101;-66
2022/09/03 08:47:13;;;;;;;9.38;8.55;;;;;;;25.90;34.14;102374.84;4212618;28;20561;-66
2022/09/03 08:49:22;;;;;;;8.85;8.15;;;;;;;25.60;33.88;102335.25;4214501;28;20040;-66
2022/09/03 08:51:26;;;;;;;8.98;8.27;;;;;;;25.84;34.70;102383.25;4212929;28;20036;-66
2022/09/03 08:53:50;;;;;;;9.25;8.55;;;;;;;25.83;35.18;102381.53;4197686;28;20109;-66
2022/09/03 08:56:02;;;;;;;8.60;8.00;;;;;;;25.78;34.66;102367.53;4197557;28;20048;-66
2022/09/03 08:58:17;;;;;;;8.35;7.72;;;;;;;25.84;34.02;102374.84;4207127;28;20056;-66
2022/09/03 09:00:19;;;;;;;8.93;8.10;;;;;;;25.64;34.14;102346.75;4204037;28;20075;-66
2022/09/03 09:02:43;;;;;;;8.35;7.75;;;;;;;25.82;34.82;102379.88;4200963;28;20101;-66
2022/09/03 09:05:06;;;;;;;8.75;8.00;;;;;;;25.87;35.10;102381.00;4214340;28;20044;-66
2022/09/03 09:07:17;;;;;;;8.25;7.65;;;;;;;25.86;34.26;102380.16;4212648;28;20035;-66
2022/09/03 09:09:51;;;;;;;8.40;7.80;;;;;;;25.85;34.24;102381.28;4197695;28;20471;-66
2022/09/03 09:12:16;;;;;;;7.85;7.25;;;;;;;25.84;34.05;102377.66;4191621;28;20040;-66
2022/09/03 09:14:22;;;;;;;7.82;7.32;;;;;;;25.84;34.94;102372.03;4196128;28;20121;-66
2022/09/03 09:17:00;;;;;;;7.90;7.40;;;;;;;25.84;34.70;102382.38;4197561;28;20041;-66
2022/09/03 09:19:15;;;;;;;8.13;7.53;;;;;;;25.89;33.95;102392.75;4181210;28;20427;-66
2022/09/03 09:21:32;;;;;;;8.00;7.40;;;;;;;25.84;33.91;102377.66;4180978;28;20415;-66
2022/09/03 09:23:50;;;;;;;7.72;7.13;;;;;;;25.81;34.62;102372.59;4207739;28;20093;-66
2022/09/03 09:25:58;;;;;;;7.78;7.28;;;;;;;25.80;35.36;102382.13;4207035;28;20048;-66
2022/09/03 09:28:03;;;;;;;7.97;7.38;;;;;;;25.85;34.34;102390.53;4204569;28;20101;-66
2022/09/03 09:30:05;;;;;;;8.32;7.53;;;;;;;25.85;34.41;102382.13;4212076;28;20057;-66
2022/09/03 09:32:10;;;;;;;7.78;7.13;;;;;;;25.83;33.84;102383.50;4213560;28;20040;-66
2022/09/03 09:34:11;;;;;;;;;;;;;;;25.79;34.29;102388.84;4214405;28;20040;-66
2022/09/03 09:36:19;;;;;;;7.82;7.25;;;;;;;25.85;35.00;102384.94;4212218;28;19916;-66
2022/09/03 09:38:35;;;;;;;7.40;6.80;;;;;;;25.89;34.88;102384.34;4197780;28;20492;-67
2022/09/03 09:40:42;;;;;;;7.68;7.00;;;;;;;25.90;34.44;102391.66;4195281;28;20037;-66
2022/09/03 09:42:43;;;;;;;7.72;7.22;;;;;;;25.89;33.80;102392.75;4179362;28;20098;-66
2022/09/03 09:44:45;;;;;;;7.15;6.63;;;;;;;25.87;34.06;102392.22;4181029;28;20098;-66
2022/09/03 09:46:47;;;;;;;7.57;6.97;;;;;;;25.83;34.40;102392.75;4211653;28;20093;-66
2022/09/03 09:48:57;;;;;;;7.32;6.72;;;;;;;25.81;35.00;102389.41;4214226;28;20040;-66